Terminal Aerodrome Forecast
Issued by NWS

Home | Current Version | Previous Version | Text Only | Print | Product List | Glossary On
Versions: 1 2 3 4 5 6 7 8 9 10 11 12 13 14 15 16 17
000
FTUS45 KPSR 231138
TAFIPL
TAF
KIPL 231138Z 2312/2412 27015KT P6SM SCT180
     FM231700 27018G26KT P6SM FEW080
     FM232100 26014KT P6SM SKC
     FM240500 27008KT P6SM SKC=

USA.gov is the U.S. government's official web portal to all federal, state and local government web resources and services.